Bei Facebook empfehlenBei Twitter postenGoogle plusPinterest

Das Wetter im Erzgebirge am 22.10.2016

Wetter und Klima am 22.10.2016 Holzhau im Erzgebirge (630m ü.NN)
Letzte gemessene Temperatur und Uhrzeit der Messung23:45:00 Uhr0.40 °C
Temperatur (Maximum / Höchstwert) und Uhrzeit der Messung12:00:00 Uhr5.40 °C
Temperatur (Minimum / Tiefstwert) und Uhrzeit der Messung07:15:00-1.60 °C
Errechneter Absolutwert der Temperaturschwankungen zwischen Tmin und Tmax des Tages7.00 K
Errechnete Tagesmitteltemperatur1.93125 °C
Gesamt - Niederschlag des Tages (in flüssiger Form)1.03 Liter / m²
Luftdruck (Maximum / Höchstwert) und Zeitpunkt der Messung22:45:00 Uhr1010.60 hPa
Luftdruck (Minimum / Tiefstwert) und Zeitpunkt der Messung16:00:00 Uhr1008.60 hPa
Errechneter Absolutwert der Luftdruckschwankungen des Tages2.00 hPa
Höchste gemessene Windgeschwindigkeit und Uhrzeit der Messung23:45:00 Uhr0.00 km/h
Errechnete Windhäufigkeit in Relation zu den Messwerten des Tages0.00000 %
Niedrigste Windkühle (Windchill) und Zeitpunkt der Messung07:15:00 Uhr-1.60 °C
Taupunkt (Maximum / Höchstwert) und Uhrzeit der Messung12:00:00 Uhr4.80 °C
Taupunkt (Minimum / Tiefstwert) und Uhrzeit der Messung07:15:00-2.50 °C
Anzahl der automatisch eingelesenen Messwerte 96

Detaillierte Wetter- und Klima- Messwerte für den 22.10.2016 in Holzhau im Erzgebirge (630m ü.NN)
ZeitTemperaturLuftdruckRel. LuftfeuchteWindWindrichtungWindchillTaupunktNiederschlag l/m²
23:45:000.40 °C1010.50 hPa94.00 %-0.50 °C1.03
23:30:000.20 °C1010.40 hPa94.00 %-0.60 °C1.03
23:15:000.10 °C1010.40 hPa94.00 %-0.70 °C1.03
23:00:00-0.10 °C1010.50 hPa94.00 %-1.00 °C1.03
22:45:00-0.20 °C1010.60 hPa94.00 %-1.10 °C1.03
22:30:000.10 °C1010.40 hPa94.00 %-0.70 °C1.03
22:15:000.40 °C1010.50 hPa94.00 %-0.50 °C1.03
22:00:000.80 °C1010.40 hPa94.00 %-0.10 °C1.03
21:45:000.90 °C1010.40 hPa94.00 %0.00 °C1.03
21:30:001.10 °C1010.30 hPa94.00 %0.20 °C1.03
21:15:001.20 °C1010.20 hPa94.00 %0.30 °C1.03
21:00:001.10 °C1010.10 hPa94.00 %0.20 °C1.03
20:45:001.30 °C1010.00 hPa93.00 %0.30 °C1.03
20:30:001.90 °C1010.10 hPa94.00 %1.00 °C1.03
20:15:002.60 °C1009.90 hPa94.00 %1.70 °C1.03
20:00:002.70 °C1010.00 hPa94.00 %1.80 °C1.03
19:45:002.90 °C1010.00 hPa94.00 %2.00 °C1.03
19:30:002.90 °C1009.90 hPa94.00 %2.00 °C1.03
19:15:002.90 °C1009.80 hPa94.00 %2.00 °C1.03
19:00:003.00 °C1009.70 hPa94.00 %2.10 °C1.03
18:45:003.30 °C1009.70 hPa94.00 %2.40 °C1.03
18:30:003.80 °C1009.40 hPa94.00 %2.90 °C1.03
18:15:003.80 °C1009.10 hPa94.00 %2.90 °C1.03
18:00:004.10 °C1008.90 hPa94.00 %3.20 °C1.03
17:45:004.20 °C1008.90 hPa94.00 %3.30 °C1.03
17:30:004.40 °C1009.00 hPa94.00 %3.50 °C1.03
17:15:004.40 °C1008.80 hPa94.00 %3.50 °C1.03
17:00:004.70 °C1008.70 hPa94.00 %3.80 °C1.03
16:45:004.80 °C1009.10 hPa94.00 %3.90 °C1.03
16:30:004.60 °C1009.00 hPa94.00 %3.70 °C1.03
16:15:004.30 °C1009.00 hPa94.00 %3.40 °C1.03
16:00:004.10 °C1008.60 hPa94.00 %3.20 °C1.03
15:45:004.10 °C1008.80 hPa94.00 %3.20 °C1.03
15:30:004.10 °C1008.80 hPa94.00 %3.20 °C1.03
15:15:003.90 °C1008.80 hPa94.00 %3.00 °C1.03
15:00:004.10 °C1008.70 hPa94.00 %3.20 °C1.03
14:45:003.90 °C1008.60 hPa94.00 %3.00 °C1.03
14:30:003.90 °C1008.80 hPa94.00 %3.00 °C0.51
14:15:004.10 °C1008.70 hPa94.00 %3.20 °C0.51
14:00:004.10 °C1008.60 hPa95.00 %3.40 °C0.51
13:45:003.90 °C1008.70 hPa94.00 %3.00 °C0.51
13:30:003.90 °C1008.80 hPa94.00 %3.00 °C0.51
13:15:004.20 °C1009.00 hPa95.00 %3.50 °C0.51
13:00:003.90 °C1009.00 hPa95.00 %3.20 °C0.51
12:45:004.10 °C1008.90 hPa95.00 %3.40 °C0.51
12:30:004.60 °C1009.00 hPa95.00 %3.90 °C 
12:15:005.30 °C1008.90 hPa95.00 %4.60 °C 
12:00:005.40 °C1008.90 hPa96.00 %4.80 °C 
11:45:005.10 °C1008.90 hPa96.00 %4.50 °C 
11:30:004.60 °C1008.90 hPa96.00 %4.00 °C 
11:15:004.70 °C1008.90 hPa96.00 %4.10 °C 
11:00:004.30 °C1008.90 hPa96.00 %3.70 °C 
10:45:003.60 °C1008.80 hPa96.00 %3.00 °C 
10:30:002.90 °C1008.90 hPa96.00 %2.30 °C 
10:15:002.50 °C1009.00 hPa96.00 %1.90 °C 
10:00:001.80 °C1009.00 hPa95.00 %1.10 °C 
09:45:001.30 °C1009.20 hPa95.00 %0.60 °C 
09:30:000.90 °C1009.00 hPa95.00 %0.20 °C 
09:15:000.70 °C1009.20 hPa95.00 %0.00 °C 
09:00:000.40 °C1009.20 hPa95.00 %-0.30 °C 
08:45:000.20 °C1009.00 hPa95.00 %-0.50 °C 
08:30:000.10 °C1009.00 hPa95.00 %-0.60 °C 
08:15:00-0.40 °C1009.00 hPa95.00 %-1.20 °C 
08:00:00-0.70 °C1009.00 hPa95.00 %-1.50 °C 
07:45:00-1.10 °C1009.00 hPa95.00 %-1.90 °C 
07:30:00-1.50 °C1008.80 hPa94.00 %-2.40 °C 
07:15:00-1.60 °C1009.00 hPa94.00 %-2.50 °C 
07:00:00-1.40 °C1008.80 hPa95.00 %-2.20 °C 
06:45:00-1.40 °C1008.70 hPa95.00 %-2.20 °C 
06:30:00-1.40 °C1009.00 hPa95.00 %-2.20 °C 
06:15:00-1.30 °C1008.90 hPa95.00 %-2.10 °C 
06:00:00-1.10 °C1009.00 hPa94.00 %-2.00 °C 
05:45:00-0.80 °C1008.80 hPa94.00 %-1.70 °C 
05:30:00-0.70 °C1008.90 hPa94.00 %-1.60 °C 
05:15:00-0.40 °C1008.70 hPa94.00 %-1.30 °C 
05:00:00-0.10 °C1008.90 hPa94.00 %-1.00 °C 
04:45:000.10 °C1008.90 hPa94.00 %-0.70 °C 
04:30:000.10 °C1009.00 hPa94.00 %-0.70 °C 
04:15:000.30 °C1009.00 hPa94.00 %-0.50 °C 
04:00:000.40 °C1009.00 hPa94.00 %-0.50 °C 
03:45:000.80 °C1009.00 hPa95.00 %0.10 °C 
03:30:000.90 °C1009.20 hPa95.00 %0.20 °C 
03:15:001.00 °C1009.30 hPa95.00 %0.30 °C 
03:00:000.90 °C1009.20 hPa95.00 %0.20 °C 
02:45:000.90 °C1009.30 hPa94.00 %0.00 °C 
02:30:000.90 °C1009.40 hPa94.00 %0.00 °C 
02:15:000.80 °C1009.50 hPa94.00 %-0.10 °C 
02:00:000.90 °C1009.40 hPa94.00 %0.00 °C 
01:45:001.10 °C1009.40 hPa94.00 %0.20 °C 
01:30:001.30 °C1009.50 hPa94.00 %0.40 °C 
01:15:001.50 °C1009.60 hPa94.00 %0.60 °C 
01:00:001.80 °C1009.50 hPa94.00 %0.90 °C 
00:45:001.90 °C1009.70 hPa94.00 %1.00 °C 
00:30:002.10 °C1009.80 hPa94.00 %1.20 °C 
00:15:002.10 °C1009.70 hPa94.00 %1.20 °C 
00:00:002.20 °C1009.70 hPa94.00 %1.30 °C 

Permanenter Link zu dieser Seite: Wetter im Erzgebirge am 22.10.2016
Performance-Info: Die Erstellung der Seite / Statistik(en) / Tabelle(n) erforderte 5 Datenbankserver-Abfrage(n) und dauerte 100 Millisekunden. (Dieser Messwert ist von der Gesamt-Auslastung des Servers abhängig.)
Erzgebirge - Wetter | Erzgebirge - Wetter (Mobilgeräte) | Komplette Klimadatenbank